Terminal Aerodrome Forecast
Issued by NWS Twin Cities, MN

Home | Current Version | Previous Version | Text Only | Print | Product List | Glossary Off
Versions: 1 2 3 4 5 6 7 8 9 10 11 12 13 14 15 16 17

000
FTUS43 KMPX 021135
TAFEAU
TAF
KEAU 021135Z 0212/0312 24009KT P6SM SCT070
     FM021600 26012G20KT P6SM SCT050
     FM021800 29015G23KT P6SM VCTS BKN040CB
     FM022200 32012G19KT P6SM SCT040
     FM030100 30007KT P6SM SKC=

USA.gov is the U.S. government's official web portal to all federal, state and local government web resources and services.